Time;durP1;ratioP1;P1;durP2;ratioP2;P2;SDS_P1;SDS_P2;PMS_P1;PMS_P2;Temp;Humidity;BMP_temperature;BMP_pressure;BME280_temperature;BME280_humidity;BME280_pressure;Samples;Min_cycle;Max_cycle;Signal;HPM_P1;HPM_P2
2023/10/11 03:26:59;;;;;;;1999.90;999.90;;;;;;;;;;5602725;23;20511;-70
2023/10/11 03:29:45;;;;;;;1999.90;999.90;;;;;;;;;;5012053;28;20217;-68
2023/10/11 03:32:30;;;;;;;1999.90;999.90;;;;;;;;;;5014708;28;20214;-68
2023/10/11 03:35:18;;;;;;;1999.90;999.90;;;;;;;;;;5019964;28;20682;-71
2023/10/11 03:38:06;;;;;;;1999.90;999.90;;;;;;;;;;5004929;28;20212;-70
2023/10/11 03:41:10;;;;;;;1999.90;999.90;;;;;;;;;;4975507;28;20208;-71
2023/10/11 03:44:09;;;;;;;1999.90;999.90;;;;;;;;;;4976545;28;20585;-71
2023/10/11 03:46:54;;;;;;;1999.90;999.90;;;;;;;;;;4988622;28;20236;-71
2023/10/11 03:49:51;;;;;;;1999.90;999.90;;;;;;;;;;4975475;28;20231;-72
2023/10/11 03:52:40;;;;;;;1999.90;999.90;;;;;;;;;;4990469;28;20621;-70
2023/10/11 03:55:25;;;;;;;1999.90;999.90;;;;;;;;;;4994727;28;20583;-71
2023/10/11 03:58:10;;;;;;;1999.90;999.90;;;;;;;;;;4994553;28;20672;-70
2023/10/11 04:01:02;;;;;;;1999.90;999.90;;;;;;;;;;4993916;28;20214;-69
2023/10/11 04:03:49;;;;;;;1999.90;999.90;;;;;;;;;;4994019;28;20603;-70
2023/10/11 04:06:34;;;;;;;1999.90;999.90;;;;;;;;;;4974600;28;20295;-71
2023/10/11 04:09:32;;;;;;;1999.90;999.90;;;;;;;;;;4987525;28;20211;-71
2023/10/11 04:12:16;;;;;;;1999.90;999.90;;;;;;;;;;4989715;28;20731;-71
2023/10/11 04:15:14;;;;;;;1999.90;999.90;;;;;;;;;;4988546;28;20267;-71
2023/10/11 04:18:05;;;;;;;1999.90;999.90;;;;;;;;;;4987684;28;20440;-68
2023/10/11 04:21:04;;;;;;;1999.90;999.90;;;;;;;;;;4994216;28;20211;-70
2023/10/11 04:23:55;;;;;;;1999.90;999.90;;;;;;;;;;4986902;28;20228;-72
2023/10/11 04:26:40;;;;;;;1999.90;999.90;;;;;;;;;;4977960;28;20259;-71
2023/10/11 04:29:31;;;;;;;1999.90;999.90;;;;;;;;;;4974822;28;20211;-69
2023/10/11 04:32:32;;;;;;;1999.90;999.90;;;;;;;;;;4978747;28;20572;-70
2023/10/11 04:35:22;;;;;;;1999.90;999.90;;;;;;;;;;4990731;28;20738;-71
2023/10/11 04:38:10;;;;;;;1999.90;999.90;;;;;;;;;;4993227;28;20242;-70
2023/10/11 04:41:02;;;;;;;1999.90;999.90;;;;;;;;;;4985751;28;20446;-70
2023/10/11 04:43:51;;;;;;;1999.90;999.90;;;;;;;;;;4990321;28;20218;-70
2023/10/11 04:46:36;;;;;;;1999.90;999.90;;;;;;;;;;4980001;28;20226;-70
2023/10/11 04:49:23;;;;;;;1999.90;999.90;;;;;;;;;;4986922;28;20680;-69
2023/10/11 04:52:13;;;;;;;1999.90;999.90;;;;;;;;;;4984131;28;20211;-69
2023/10/11 04:54:58;;;;;;;1999.90;999.90;;;;;;;;;;4991367;28;20208;-70
2023/10/11 04:58:04;;;;;;;1999.90;999.90;;;;;;;;;;4993311;28;20290;-70
2023/10/11 05:00:54;;;;;;;1999.90;999.90;;;;;;;;;;4989613;28;20587;-70
2023/10/11 05:03:39;;;;;;;1999.90;999.90;;;;;;;;;;4992396;28;20298;-70
2023/10/11 05:06:30;;;;;;;1999.90;999.90;;;;;;;;;;4989010;28;20227;-70
2023/10/11 05:09:29;;;;;;;1999.90;999.90;;;;;;;;;;4974116;28;20212;-69
2023/10/11 05:12:19;;;;;;;1999.90;999.90;;;;;;;;;;4985180;28;20210;-70
2023/10/11 05:15:07;;;;;;;1999.90;999.90;;;;;;;;;;4987375;28;20693;-69
2023/10/11 05:17:59;;;;;;;1999.90;999.90;;;;;;;;;;4992950;28;20227;-71
2023/10/11 05:20:57;;;;;;;1999.90;999.90;;;;;;;;;;4986628;28;20227;-69
2023/10/11 05:23:52;;;;;;;1999.90;999.90;;;;;;;;;;4988675;28;20214;-69
2023/10/11 05:26:38;;;;;;;1999.90;999.90;;;;;;;;;;4992489;28;20335;-69
2023/10/11 05:29:31;;;;;;;1999.90;999.90;;;;;;;;;;4973191;28;20681;-71
2023/10/11 05:32:23;;;;;;;1999.90;999.90;;;;;;;;;;4992303;28;20421;-70
2023/10/11 05:35:19;;;;;;;1999.90;999.90;;;;;;;;;;4984687;28;20691;-69
2023/10/11 05:53:20;;;;;;;1999.90;999.90;;;;;;;;;;4992600;28;20318;-70
2023/10/11 05:56:05;;;;;;;1999.90;999.90;;;;;;;;;;4987167;28;20505;-69
2023/10/11 05:58:50;;;;;;;1999.90;999.90;;;;;;;;;;4989220;28;20206;-70
2023/10/11 06:01:37;;;;;;;1999.90;999.90;;;;;;;;;;4987286;28;20214;-69
2023/10/11 06:04:23;;;;;;;1999.90;999.90;;;;;;;;;;4996602;28;20215;-69
2023/10/11 06:07:11;;;;;;;1999.90;999.90;;;;;;;;;;4982271;28;20239;-70
2023/10/11 06:10:02;;;;;;;1999.90;999.90;;;;;;;;;;4972712;28;20220;-70
2023/10/11 06:12:50;;;;;;;1999.90;999.90;;;;;;;;;;4988249;28;20665;-70
2023/10/11 06:15:36;;;;;;;1999.90;999.90;;;;;;;;;;4989892;28;20676;-69
2023/10/11 06:31:40;;;;;;;1999.90;999.90;;;;;;;;;;5107308;27;20574;-70
2023/10/11 06:34:26;;;;;;;1999.90;999.90;;;;;;;;;;5113711;28;20663;-69
2023/10/11 06:37:16;;;;;;;1999.90;999.90;;;;;;;;;;5108103;28;20227;-69
2023/10/11 06:40:13;;;;;;;1999.90;999.90;;;;;;;;;;5113915;28;20300;-70
2023/10/11 06:42:57;;;;;;;1999.90;999.90;;;;;;;;;;5103657;28;20207;-71
2023/10/11 06:45:42;;;;;;;1999.90;999.90;;;;;;;;;;5097952;28;20252;-70
2023/10/11 06:48:29;;;;;;;1999.90;999.90;;;;;;;;;;5106882;28;20474;-69
2023/10/11 06:51:14;;;;;;;1999.90;999.90;;;;;;;;;;5099316;28;20487;-71
2023/10/11 06:54:00;;;;;;;1999.90;999.90;;;;;;;;;;5103713;28;20215;-70
2023/10/11 06:56:45;;;;;;;1999.90;999.90;;;;;;;;;;5089205;28;20302;-70
2023/10/11 06:59:29;;;;;;;1999.90;999.90;;;;;;;;;;5097270;28;20342;-70
2023/10/11 07:02:25;;;;;;;1999.90;999.90;;;;;;;;;;5090495;28;20208;-70
2023/10/11 07:05:17;;;;;;;1999.90;999.90;;;;;;;;;;5090532;28;20704;-69
2023/10/11 07:08:05;;;;;;;1999.90;999.90;;;;;;;;;;5092215;28;20211;-70
2023/10/11 07:11:02;;;;;;;1999.90;999.90;;;;;;;;;;5100202;28;20511;-70
2023/10/11 07:13:54;;;;;;;1999.90;999.90;;;;;;;;;;5103295;28;20207;-70
2023/10/11 07:16:41;;;;;;;1999.90;999.90;;;;;;;;;;5108546;28;20297;-71
2023/10/11 07:19:26;;;;;;;1999.90;999.90;;;;;;;;;;5108716;28;20301;-70
2023/10/11 07:22:18;;;;;;;1999.90;999.90;;;;;;;;;;5106467;28;20296;-68
2023/10/11 07:25:19;;;;;;;1999.90;999.90;;;;;;;;;;5108566;28;20211;-69
2023/10/11 07:28:03;;;;;;;1999.90;999.90;;;;;;;;;;5108390;28;20195;-70
2023/10/11 07:30:48;;;;;;;1999.90;999.90;;;;;;;;;;5104770;28;20574;-70
2023/10/11 07:33:36;;;;;;;1999.90;999.90;;;;;;;;;;5094773;28;20242;-69
2023/10/11 07:36:22;;;;;;;1999.90;999.90;;;;;;;;;;5085567;28;20240;-70
2023/10/11 07:39:19;;;;;;;1999.90;999.90;;;;;;;;;;5094312;28;20218;-70
2023/10/11 07:42:08;;;;;;;1999.90;999.90;;;;;;;;;;5090002;28;20310;-70
2023/10/11 07:44:53;;;;;;;1999.90;999.90;;;;;;;;;;5087326;28;20204;-70
2023/10/11 07:47:37;;;;;;;1999.90;999.90;;;;;;;;;;5074984;28;20271;-70
2023/10/11 07:50:24;;;;;;;1999.90;999.90;;;;;;;;;;5075425;28;20208;-69
2023/10/11 07:53:13;;;;;;;1999.90;999.90;;;;;;;;;;5074041;28;20215;-69
2023/10/11 07:55:59;;;;;;;1999.90;999.90;;;;;;;;;;5074016;28;20243;-70
2023/10/11 07:58:46;;;;;;;1999.90;999.90;;;;;;;;;;5078843;28;20211;-70
2023/10/11 08:01:31;;;;;;;1999.90;999.90;;;;;;;;;;5078912;28;20642;-70
2023/10/11 08:04:18;;;;;;;1999.90;999.90;;;;;;;;;;5083544;28;20216;-70
2023/10/11 08:07:04;;;;;;;1999.90;999.90;;;;;;;;;;5092423;28;20314;-71
2023/10/11 08:09:52;;;;;;;1999.90;999.90;;;;;;;;;;5078095;28;20205;-70
2023/10/11 08:12:39;;;;;;;1999.90;999.90;;;;;;;;;;5073734;28;20208;-71
2023/10/11 08:15:25;;;;;;;1999.90;999.90;;;;;;;;;;5075953;28;20682;-70
2023/10/11 08:18:10;;;;;;;1999.90;999.90;;;;;;;;;;5084638;28;20236;-70
2023/10/11 08:20:55;;;;;;;1999.90;999.90;;;;;;;;;;5093575;28;20229;-71
2023/10/11 08:23:42;;;;;;;1999.90;999.90;;;;;;;;;;5093804;28;20207;-70
2023/10/11 08:26:32;;;;;;;1999.90;999.90;;;;;;;;;;5088208;28;21176;-70
2023/10/11 08:29:27;;;;;;;1999.90;999.90;;;;;;;;;;5073307;28;20208;-71
2023/10/11 08:32:14;;;;;;;1999.90;999.90;;;;;;;;;;5073240;28;20699;-70
2023/10/11 08:34:59;;;;;;;1999.90;999.90;;;;;;;;;;5091820;28;20312;-70
2023/10/11 08:37:44;;;;;;;1999.90;999.90;;;;;;;;;;5086010;28;20223;-70
2023/10/11 08:40:34;;;;;;;1999.90;999.90;;;;;;;;;;5084317;28;20294;-70
2023/10/11 08:43:21;;;;;;;1999.90;999.90;;;;;;;;;;5072090;28;20563;-69
2023/10/11 08:46:09;;;;;;;1999.90;999.90;;;;;;;;;;5073079;28;20321;-69
2023/10/11 08:48:54;;;;;;;1999.90;999.90;;;;;;;;;;5087497;28;20208;-69
2023/10/11 08:51:41;;;;;;;1999.90;999.90;;;;;;;;;;5092400;28;20203;-69
2023/10/11 08:54:27;;;;;;;1999.90;999.90;;;;;;;;;;5093042;28;20331;-69
2023/10/11 08:57:13;;;;;;;1999.90;999.90;;;;;;;;;;5092750;28;20226;-70
2023/10/11 08:59:59;;;;;;;1999.90;999.90;;;;;;;;;;5092944;28;20296;-69
2023/10/11 09:02:48;;;;;;;1999.90;999.90;;;;;;;;;;5087571;28;20228;-69
2023/10/11 09:05:42;;;;;;;1999.90;999.90;;;;;;;;;;5090079;28;20208;-70
2023/10/11 09:08:31;;;;;;;1999.90;999.90;;;;;;;;;;5089001;28;20864;-70
2023/10/11 09:11:28;;;;;;;1999.90;999.90;;;;;;;;;;5091449;28;20707;-70
2023/10/11 09:14:14;;;;;;;1999.90;999.90;;;;;;;;;;5092864;28;20222;-70
2023/10/11 09:17:02;;;;;;;1999.90;999.90;;;;;;;;;;5091562;28;20406;-70
2023/10/11 09:19:51;;;;;;;1999.90;999.90;;;;;;;;;;5094385;28;20204;-71
2023/10/11 09:22:45;;;;;;;1999.90;999.90;;;;;;;;;;5072684;28;20216;-70
2023/10/11 09:25:33;;;;;;;1999.90;999.90;;;;;;;;;;5092020;28;20203;-71
2023/10/11 09:28:18;;;;;;;1999.90;999.90;;;;;;;;;;5093064;28;20246;-71
2023/10/11 09:31:10;;;;;;;1999.90;999.90;;;;;;;;;;5086537;28;20320;-70
2023/10/11 09:33:59;;;;;;;1999.90;999.90;;;;;;;;;;5080178;28;20597;-69
2023/10/11 09:36:46;;;;;;;1999.90;999.90;;;;;;;;;;5077330;28;20659;-70
2023/10/11 09:39:31;;;;;;;1999.90;999.90;;;;;;;;;;5071564;28;20777;-70
2023/10/11 09:42:16;;;;;;;1999.90;999.90;;;;;;;;;;5084919;28;20284;-71
2023/10/11 09:45:01;;;;;;;1999.90;999.90;;;;;;;;;;5091886;28;20207;-69
2023/10/11 09:47:54;;;;;;;1999.90;999.90;;;;;;;;;;5087509;28;20351;-70
2023/10/11 09:50:41;;;;;;;1999.90;999.90;;;;;;;;;;5078025;28;20247;-70
2023/10/11 09:53:27;;;;;;;1999.90;999.90;;;;;;;;;;5089324;28;20334;-69
2023/10/11 09:56:18;;;;;;;1999.90;999.90;;;;;;;;;;5076779;28;20236;-69
2023/10/11 09:59:12;;;;;;;1999.90;999.90;;;;;;;;;;5088623;28;20215;-69
2023/10/11 10:02:02;;;;;;;1999.90;999.90;;;;;;;;;;5086782;28;20224;-70
2023/10/11 10:04:57;;;;;;;1999.90;999.90;;;;;;;;;;5089740;28;20290;-71
2023/10/11 10:07:45;;;;;;;1999.90;999.90;;;;;;;;;;5091678;28;20257;-70
2023/10/11 10:10:52;;;;;;;1999.90;999.90;;;;;;;;;;5081521;28;20208;-70
2023/10/11 10:13:58;;;;;;;1999.90;999.90;;;;;;;;;;5086311;28;20204;-69
2023/10/11 10:17:02;;;;;;;1999.90;999.90;;;;;;;;;;5085804;28;20354;-68
2023/10/11 10:19:47;;;;;;;1999.90;999.90;;;;;;;;;;5095595;28;20760;-70
2023/10/11 10:22:32;;;;;;;1999.90;999.90;;;;;;;;;;5090045;28;20203;-69
2023/10/11 10:25:18;;;;;;;1999.90;999.90;;;;;;;;;;5091945;28;20326;-69
2023/10/11 10:28:04;;;;;;;1999.90;999.90;;;;;;;;;;5088156;28;20265;-69
2023/10/11 10:31:04;;;;;;;1999.90;999.90;;;;;;;;;;5090154;28;20559;-69
2023/10/11 10:33:50;;;;;;;1999.90;999.90;;;;;;;;;;5083704;28;20257;-70
2023/10/11 10:36:38;;;;;;;1999.90;999.90;;;;;;;;;;5091648;28;20220;-69
2023/10/11 10:39:36;;;;;;;1999.90;999.90;;;;;;;;;;5091941;28;20188;-69
2023/10/11 10:42:24;;;;;;;1999.90;999.90;;;;;;;;;;5082366;28;20232;-69
2023/10/11 10:45:12;;;;;;;1999.90;999.90;;;;;;;;;;5091751;28;20207;-69
2023/10/11 10:48:13;;;;;;;1999.90;999.90;;;;;;;;;;5086540;28;20224;-69
2023/10/11 10:51:04;;;;;;;1999.90;999.90;;;;;;;;;;5085018;28;20219;-69
2023/10/11 10:53:50;;;;;;;1999.90;999.90;;;;;;;;;;5083140;28;20528;-69
2023/10/11 10:56:36;;;;;;;1999.90;999.90;;;;;;;;;;5099705;28;20964;-69
2023/10/11 10:59:21;;;;;;;1999.90;999.90;;;;;;;;;;5086262;28;20208;-69
2023/10/11 11:02:12;;;;;;;1999.90;999.90;;;;;;;;;;5083497;28;20220;-69
2023/10/11 11:04:59;;;;;;;1999.90;999.90;;;;;;;;;;5082031;28;20225;-69
2023/10/11 11:07:47;;;;;;;1999.90;999.90;;;;;;;;;;5086643;28;20228;-69
2023/10/11 11:10:31;;;;;;;1999.90;999.90;;;;;;;;;;5095196;28;20703;-69
2023/10/11 11:13:16;;;;;;;1999.90;999.90;;;;;;;;;;5095388;28;20191;-69
2023/10/11 11:16:09;;;;;;;1999.90;999.90;;;;;;;;;;5084535;28;20736;-69
2023/10/11 11:19:00;;;;;;;1999.90;999.90;;;;;;;;;;5095050;28;20196;-69
2023/10/11 11:21:44;;;;;;;1999.90;999.90;;;;;;;;;;5095015;28;20223;-69
2023/10/11 11:24:34;;;;;;;1999.90;999.90;;;;;;;;;;5093662;28;20208;-69
2023/10/11 11:27:25;;;;;;;1999.90;999.90;;;;;;;;;;5091321;28;20268;-68
2023/10/11 11:30:17;;;;;;;1999.90;999.90;;;;;;;;;;5079701;28;20211;-68
2023/10/11 11:33:10;;;;;;;1999.90;999.90;;;;;;;;;;5088223;28;20255;-68
2023/10/11 11:35:56;;;;;;;1999.90;999.90;;;;;;;;;;5094464;28;20381;-69
2023/10/11 11:38:45;;;;;;;1999.90;999.90;;;;;;;;;;5087721;28;20210;-70
2023/10/11 11:41:30;;;;;;;1999.90;999.90;;;;;;;;;;5094020;28;20725;-69
2023/10/11 11:44:20;;;;;;;1999.90;999.90;;;;;;;;;;5096968;28;20747;-71
2023/10/11 11:47:05;;;;;;;1999.90;999.90;;;;;;;;;;5094356;28;20470;-70
2023/10/11 11:49:49;;;;;;;1999.90;999.90;;;;;;;;;;5094557;28;20240;-71
2023/10/11 11:52:36;;;;;;;1999.90;999.90;;;;;;;;;;5094478;28;20713;-68
2023/10/11 11:55:20;;;;;;;1999.90;999.90;;;;;;;;;;5087044;28;20208;-70
2023/10/11 11:58:10;;;;;;;1999.90;999.90;;;;;;;;;;5087582;28;20206;-70
2023/10/11 12:01:08;;;;;;;1999.90;999.90;;;;;;;;;;5086148;28;20287;-70
2023/10/11 12:03:54;;;;;;;1999.90;999.90;;;;;;;;;;5094236;28;20212;-67
2023/10/11 12:06:38;;;;;;;1999.90;999.90;;;;;;;;;;5093807;28;20284;-68
2023/10/11 12:09:31;;;;;;;1999.90;999.90;;;;;;;;;;5093127;28;20452;-70
2023/10/11 12:12:16;;;;;;;1999.90;999.90;;;;;;;;;;5094064;28;20338;-68
2023/10/11 12:15:02;;;;;;;1999.90;999.90;;;;;;;;;;5087662;28;20254;-67
2023/10/11 12:17:47;;;;;;;1999.90;999.90;;;;;;;;;;5104357;28;20230;-69
2023/10/11 12:20:34;;;;;;;1999.90;999.90;;;;;;;;;;5113973;28;20251;-69
2023/10/11 12:23:20;;;;;;;1999.90;999.90;;;;;;;;;;5114252;28;20213;-68
2023/10/11 12:26:07;;;;;;;1999.90;999.90;;;;;;;;;;5113948;28;20727;-69
2023/10/11 12:28:52;;;;;;;1999.90;999.90;;;;;;;;;;5108987;28;20234;-69
2023/10/11 12:31:38;;;;;;;1999.90;999.90;;;;;;;;;;5092845;28;20574;-70
2023/10/11 12:34:25;;;;;;;1999.90;999.90;;;;;;;;;;5093493;28;20211;-70
2023/10/11 12:37:14;;;;;;;1999.90;999.90;;;;;;;;;;5085583;28;20778;-69
2023/10/11 12:39:59;;;;;;;1999.90;999.90;;;;;;;;;;5092149;28;20200;-68
2023/10/11 12:42:45;;;;;;;1999.90;999.90;;;;;;;;;;5093383;28;20330;-69
2023/10/11 12:45:31;;;;;;;1999.90;999.90;;;;;;;;;;5093474;28;20214;-68
2023/10/11 12:48:16;;;;;;;1999.90;999.90;;;;;;;;;;5093445;28;20255;-69
2023/10/11 12:51:01;;;;;;;1999.90;999.90;;;;;;;;;;5092261;28;20201;-70
2023/10/11 12:53:46;;;;;;;1999.90;999.90;;;;;;;;;;5089901;28;20690;-70
2023/10/11 12:56:31;;;;;;;1999.90;999.90;;;;;;;;;;5084665;28;20814;-70
2023/10/11 12:59:22;;;;;;;1999.90;999.90;;;;;;;;;;5071469;28;20403;-69
2023/10/11 13:02:09;;;;;;;1999.90;999.90;;;;;;;;;;5083973;28;20222;-69
2023/10/11 13:04:58;;;;;;;1999.90;999.90;;;;;;;;;;5089776;28;20625;-69
2023/10/11 13:07:43;;;;;;;1999.90;999.90;;;;;;;;;;5085947;28;20232;-69
2023/10/11 13:10:29;;;;;;;1999.90;999.90;;;;;;;;;;5088740;28;20206;-69
2023/10/11 13:13:15;;;;;;;1999.90;999.90;;;;;;;;;;5090765;28;20282;-69
2023/10/11 13:16:01;;;;;;;1999.90;999.90;;;;;;;;;;5091971;28;20244;-69
2023/10/11 13:18:46;;;;;;;1999.90;999.90;;;;;;;;;;5082516;28;20357;-69
2023/10/11 13:21:33;;;;;;;1999.90;999.90;;;;;;;;;;5092664;28;20212;-69
2023/10/11 13:24:22;;;;;;;1999.90;999.90;;;;;;;;;;5093083;28;20208;-69
2023/10/11 13:27:09;;;;;;;1999.90;999.90;;;;;;;;;;5086956;28;20302;-69
2023/10/11 13:29:54;;;;;;;1999.90;999.90;;;;;;;;;;5092156;28;20220;-69
2023/10/11 13:32:40;;;;;;;1999.90;999.90;;;;;;;;;;5088544;28;20200;-68
2023/10/11 13:35:26;;;;;;;1999.90;999.90;;;;;;;;;;5082678;28;20258;-69
2023/10/11 13:38:17;;;;;;;1999.90;999.90;;;;;;;;;;5072798;28;20395;-69
2023/10/11 13:41:01;;;;;;;1999.90;999.90;;;;;;;;;;5087177;28;20229;-69
2023/10/11 13:43:47;;;;;;;1999.90;999.90;;;;;;;;;;5073272;28;20685;-69
2023/10/11 13:46:35;;;;;;;1999.90;999.90;;;;;;;;;;5092135;28;20223;-68
2023/10/11 13:49:25;;;;;;;1999.90;999.90;;;;;;;;;;5092577;28;20205;-68
2023/10/11 13:52:12;;;;;;;1999.90;999.90;;;;;;;;;;5092457;28;20258;-68
2023/10/11 13:55:00;;;;;;;1999.90;999.90;;;;;;;;;;5091916;28;20204;-69
2023/10/11 13:57:52;;;;;;;1999.90;999.90;;;;;;;;;;5085705;28;20324;-68
2023/10/11 14:03:45;;;;;;;1999.90;999.90;;;;;;;;;;5079570;28;20255;-69
2023/10/11 14:06:42;;;;;;;1999.90;999.90;;;;;;;;;;5096711;28;20606;-68
2023/10/11 14:09:30;;;;;;;1999.90;999.90;;;;;;;;;;5090498;28;20309;-68
2023/10/11 14:12:17;;;;;;;1999.90;999.90;;;;;;;;;;5091831;28;20699;-69
2023/10/11 14:15:06;;;;;;;1999.90;999.90;;;;;;;;;;5091342;28;20244;-69
2023/10/11 14:17:53;;;;;;;1999.90;999.90;;;;;;;;;;5091562;28;20233;-69
2023/10/11 14:20:38;;;;;;;1999.90;999.90;;;;;;;;;;5097592;28;20213;-68
2023/10/11 14:23:27;;;;;;;1999.90;999.90;;;;;;;;;;5097222;28;20261;-69
2023/10/11 14:26:13;;;;;;;1999.90;999.90;;;;;;;;;;5091504;28;20238;-69
2023/10/11 14:28:58;;;;;;;1999.90;999.90;;;;;;;;;;5111029;28;20215;-68
2023/10/11 14:31:43;;;;;;;1999.90;999.90;;;;;;;;;;5087464;28;20212;-69
2023/10/11 14:34:28;;;;;;;1999.90;999.90;;;;;;;;;;5091729;28;20210;-69
2023/10/11 14:37:13;;;;;;;1999.90;999.90;;;;;;;;;;5084030;28;20233;-69
2023/10/11 14:40:00;;;;;;;1999.90;999.90;;;;;;;;;;5102406;28;20273;-69
2023/10/11 14:42:45;;;;;;;1999.90;999.90;;;;;;;;;;5115233;28;20283;-68
2023/10/11 14:45:30;;;;;;;1999.90;999.90;;;;;;;;;;5116247;28;20281;-68
2023/10/11 14:48:17;;;;;;;1999.90;999.90;;;;;;;;;;5094194;28;20207;-69
2023/10/11 14:51:05;;;;;;;1999.90;999.90;;;;;;;;;;5095683;28;20390;-69
2023/10/11 14:53:50;;;;;;;1999.90;999.90;;;;;;;;;;5095580;28;20256;-69
2023/10/11 14:56:36;;;;;;;1999.90;999.90;;;;;;;;;;5094747;28;20336;-69
2023/10/11 14:59:21;;;;;;;1999.90;999.90;;;;;;;;;;5115810;28;20207;-69
2023/10/11 15:02:06;;;;;;;1999.90;999.90;;;;;;;;;;5115723;28;20232;-70
2023/10/11 15:04:51;;;;;;;1999.90;999.90;;;;;;;;;;5097090;28;20673;-69
2023/10/11 15:07:40;;;;;;;1999.90;999.90;;;;;;;;;;5081133;28;20235;-69
2023/10/11 15:10:24;;;;;;;1999.90;999.90;;;;;;;;;;5075064;28;20206;-69
2023/10/11 15:13:11;;;;;;;1999.90;999.90;;;;;;;;;;5074702;28;20205;-70
2023/10/11 15:15:56;;;;;;;1999.90;999.90;;;;;;;;;;5074824;28;20232;-69
2023/10/11 15:18:41;;;;;;;1999.90;999.90;;;;;;;;;;5077259;28;20217;-69
2023/10/11 15:21:26;;;;;;;1999.90;999.90;;;;;;;;;;5084712;28;20703;-69
2023/10/11 15:24:13;;;;;;;1999.90;999.90;;;;;;;;;;5090400;28;20213;-70
2023/10/11 15:26:58;;;;;;;1999.90;999.90;;;;;;;;;;5092456;28;20230;-69
2023/10/11 15:29:46;;;;;;;1999.90;999.90;;;;;;;;;;5094958;28;20220;-68
2023/10/11 15:32:31;;;;;;;1999.90;999.90;;;;;;;;;;5095074;28;20693;-69
2023/10/11 15:35:17;;;;;;;1999.90;999.90;;;;;;;;;;5090811;28;20218;-69
2023/10/11 15:38:05;;;;;;;1999.90;999.90;;;;;;;;;;5074910;28;21278;-68
2023/10/11 15:40:57;;;;;;;1999.90;999.90;;;;;;;;;;5091234;28;20281;-69
2023/10/11 15:43:42;;;;;;;1999.90;999.90;;;;;;;;;;5094544;28;20277;-69
2023/10/11 15:46:29;;;;;;;1999.90;999.90;;;;;;;;;;5094341;28;20607;-67
2023/10/11 15:49:14;;;;;;;1999.90;999.90;;;;;;;;;;5094593;28;20785;-69
2023/10/11 15:52:00;;;;;;;1999.90;999.90;;;;;;;;;;5093830;28;20210;-69
2023/10/11 15:54:45;;;;;;;1999.90;999.90;;;;;;;;;;5093456;28;20635;-69
2023/10/11 15:57:31;;;;;;;1999.90;999.90;;;;;;;;;;5087875;28;20347;-70
2023/10/11 16:00:19;;;;;;;1999.90;999.90;;;;;;;;;;5094298;28;20229;-70
2023/10/11 16:03:09;;;;;;;1999.90;999.90;;;;;;;;;;5094024;28;20281;-70
2023/10/11 16:05:57;;;;;;;1999.90;999.90;;;;;;;;;;5075094;28;20961;-70
2023/10/11 16:08:42;;;;;;;1999.90;999.90;;;;;;;;;;5073877;28;20214;-69
2023/10/11 16:11:30;;;;;;;1999.90;999.90;;;;;;;;;;5078688;28;20205;-70
2023/10/11 16:14:15;;;;;;;1999.90;999.90;;;;;;;;;;5082059;28;20221;-69
2023/10/11 16:17:00;;;;;;;1999.90;999.90;;;;;;;;;;5077485;28;20233;-68
2023/10/11 16:19:47;;;;;;;1999.90;999.90;;;;;;;;;;5094579;28;20211;-69
2023/10/11 16:22:35;;;;;;;1999.90;999.90;;;;;;;;;;5089816;28;20224;-70
2023/10/11 16:25:20;;;;;;;1999.90;999.90;;;;;;;;;;5086126;28;20573;-70
2023/10/11 16:28:09;;;;;;;1999.90;999.90;;;;;;;;;;5083392;28;20264;-69
2023/10/11 16:30:55;;;;;;;1999.90;999.90;;;;;;;;;;5091283;28;20292;-70
2023/10/11 16:33:41;;;;;;;1999.90;999.90;;;;;;;;;;5086965;28;20708;-70
2023/10/11 16:36:27;;;;;;;1999.90;999.90;;;;;;;;;;5090953;28;20248;-69
2023/10/11 16:39:16;;;;;;;1999.90;999.90;;;;;;;;;;5083495;28;20212;-69
2023/10/11 16:42:01;;;;;;;1999.90;999.90;;;;;;;;;;5092308;28;20229;-69
2023/10/11 16:44:46;;;;;;;1999.90;999.90;;;;;;;;;;5084189;28;20278;-70
2023/10/11 16:47:36;;;;;;;1999.90;999.90;;;;;;;;;;5092896;28;20626;-70
2023/10/11 16:50:21;;;;;;;1999.90;999.90;;;;;;;;;;5090966;28;20204;-69
2023/10/11 16:53:08;;;;;;;1999.90;999.90;;;;;;;;;;5091782;28;20608;-70
2023/10/11 16:55:53;;;;;;;1999.90;999.90;;;;;;;;;;5081401;28;20814;-70
2023/10/11 16:58:38;;;;;;;1999.90;999.90;;;;;;;;;;5087087;28;20200;-69
2023/10/11 17:01:23;;;;;;;1999.90;999.90;;;;;;;;;;5093277;28;20287;-70
2023/10/11 17:04:08;;;;;;;1999.90;999.90;;;;;;;;;;5084414;28;20201;-69
2023/10/11 17:06:54;;;;;;;1999.90;999.90;;;;;;;;;;5092703;28;20345;-69
2023/10/11 17:09:40;;;;;;;1999.90;999.90;;;;;;;;;;5093112;28;20208;-69
2023/10/11 17:12:25;;;;;;;1999.90;999.90;;;;;;;;;;5092829;28;20200;-69
2023/10/11 17:15:13;;;;;;;1999.90;999.90;;;;;;;;;;5084938;28;20301;-69
2023/10/11 17:18:02;;;;;;;1999.90;999.90;;;;;;;;;;5078091;28;20427;-69
2023/10/11 17:20:47;;;;;;;1999.90;999.90;;;;;;;;;;5081175;28;20212;-69
2023/10/11 17:23:32;;;;;;;1999.90;999.90;;;;;;;;;;5084660;28;20218;-69
2023/10/11 17:26:21;;;;;;;1999.90;999.90;;;;;;;;;;5074610;28;20236;-69
2023/10/11 17:29:08;;;;;;;1999.90;999.90;;;;;;;;;;5091203;28;20731;-69
2023/10/11 17:31:53;;;;;;;1999.90;999.90;;;;;;;;;;5079194;28;20203;-69
2023/10/11 17:34:37;;;;;;;1999.90;999.90;;;;;;;;;;5071548;28;20343;-69
2023/10/11 17:37:22;;;;;;;1999.90;999.90;;;;;;;;;;5075322;28;20593;-69
2023/10/11 17:40:10;;;;;;;1999.90;999.90;;;;;;;;;;5088681;28;20209;-69
2023/10/11 17:42:58;;;;;;;1999.90;999.90;;;;;;;;;;5092145;28;20371;-69
2023/10/11 17:45:43;;;;;;;1999.90;999.90;;;;;;;;;;5086049;28;20199;-69
2023/10/11 17:48:28;;;;;;;1999.90;999.90;;;;;;;;;;5071863;28;20229;-69
2023/10/11 17:51:17;;;;;;;1999.90;999.90;;;;;;;;;;5071709;28;20211;-69
2023/10/11 17:54:03;;;;;;;1999.90;999.90;;;;;;;;;;5073814;28;20251;-68
2023/10/11 17:56:47;;;;;;;1999.90;999.90;;;;;;;;;;5091526;28;20779;-69
2023/10/11 17:59:34;;;;;;;1999.90;999.90;;;;;;;;;;5092204;28;20217;-68
2023/10/11 18:02:19;;;;;;;1999.90;999.90;;;;;;;;;;5091886;28;20243;-68
2023/10/11 18:05:06;;;;;;;1999.90;999.90;;;;;;;;;;5089188;28;21126;-69
2023/10/11 18:07:51;;;;;;;1999.90;999.90;;;;;;;;;;5088031;28;20303;-69
2023/10/11 18:10:37;;;;;;;1999.90;999.90;;;;;;;;;;5083332;28;20212;-69
2023/10/11 18:13:23;;;;;;;1999.90;999.90;;;;;;;;;;5089973;28;20758;-70
2023/10/11 18:16:10;;;;;;;1999.90;999.90;;;;;;;;;;5086593;28;20224;-69
2023/10/11 18:18:55;;;;;;;1999.90;999.90;;;;;;;;;;5087995;28;20268;-69
2023/10/11 18:21:43;;;;;;;1999.90;999.90;;;;;;;;;;5087157;28;20203;-69
2023/10/11 18:24:28;;;;;;;1999.90;999.90;;;;;;;;;;5084518;28;20429;-69
2023/10/11 18:27:13;;;;;;;1999.90;999.90;;;;;;;;;;5086437;28;20254;-68
2023/10/11 18:29:59;;;;;;;1999.90;999.90;;;;;;;;;;5085509;28;20214;-69
2023/10/11 18:32:46;;;;;;;1999.90;999.90;;;;;;;;;;5083070;28;20437;-70
2023/10/11 18:35:31;;;;;;;1999.90;999.90;;;;;;;;;;5089310;28;20594;-69
2023/10/11 18:38:16;;;;;;;1999.90;999.90;;;;;;;;;;5081239;28;20208;-69
2023/10/11 18:41:04;;;;;;;1999.90;999.90;;;;;;;;;;5085206;28;20216;-69
2023/10/11 18:43:52;;;;;;;1999.90;999.90;;;;;;;;;;5089057;28;20346;-69
2023/10/11 18:46:37;;;;;;;1999.90;999.90;;;;;;;;;;5087566;28;20266;-69
2023/10/11 18:49:23;;;;;;;1999.90;999.90;;;;;;;;;;5089095;28;20655;-70
2023/10/11 18:52:08;;;;;;;1999.90;999.90;;;;;;;;;;5089472;28;20687;-70
2023/10/11 18:54:55;;;;;;;1999.90;999.90;;;;;;;;;;5089398;28;20284;-70
2023/10/11 18:57:40;;;;;;;1999.90;999.90;;;;;;;;;;5086827;28;20602;-69
2023/10/11 19:00:25;;;;;;;1999.90;999.90;;;;;;;;;;5088082;28;20593;-70
2023/10/11 19:03:10;;;;;;;1999.90;999.90;;;;;;;;;;5088124;28;20220;-69
2023/10/11 19:05:58;;;;;;;1999.90;999.90;;;;;;;;;;5085226;28;20611;-69
2023/10/11 19:08:44;;;;;;;1999.90;999.90;;;;;;;;;;5089994;28;20227;-68
2023/10/11 19:11:29;;;;;;;1999.90;999.90;;;;;;;;;;5089619;28;20274;-70
2023/10/11 19:14:15;;;;;;;1999.90;999.90;;;;;;;;;;5086907;28;20204;-70
2023/10/11 19:17:00;;;;;;;1999.90;999.90;;;;;;;;;;5088517;28;20484;-69
2023/10/11 19:19:44;;;;;;;1999.90;999.90;;;;;;;;;;5089421;28;20282;-69
2023/10/11 19:22:31;;;;;;;1999.90;999.90;;;;;;;;;;5085529;28;20224;-69
2023/10/11 19:25:20;;;;;;;1999.90;999.90;;;;;;;;;;5088950;28;20200;-70
2023/10/11 19:28:08;;;;;;;1999.90;999.90;;;;;;;;;;5086281;28;20211;-69
2023/10/11 19:30:52;;;;;;;1999.90;999.90;;;;;;;;;;5088657;28;20311;-70
2023/10/11 19:33:37;;;;;;;1999.90;999.90;;;;;;;;;;5091487;28;20215;-70